EHKD/DHR METAR and TAF weather

Enter ICAO airport designator
Station Type Date Time Source
EHKD METAR 2022/01/29 10:55 UTC NOAA

EHKD 291055Z AUTO 24022G32KT 9999 -RADZ BKN029 BKN034 OVC310 10/07 Q1018 BLU


Station Type Date Time Source
EHKD Decoded METAR 2022/01/29 10:55 UTC NOAA

De Kooy, Netherlands (EHKD) 52-55N 004-47E 14M
Jan 29, 2022 - 05:55 AM EST / 2022.01.29 1055 UTC
Wind: from the WSW (240 degrees) at 25 MPH (22 KT) gusting to 37 MPH (32 KT):0
Visibility: greater than 7 mile(s):0
Sky conditions: overcast
Weather: light rain, drizzle
Temperature: 50 F (10 C)
Dew Point: 44 F (7 C)
Relative Humidity: 81%
Pressure (altimeter): 30.06 in. Hg (1018 hPa)
ob: EHKD 291055Z AUTO 24022G32KT 9999 -RADZ BKN029 BKN034 OVC310 10/07 Q1018 BLU
cycle: 11

Station Type Date Time Source
EHKD TAF 2022/01/29 10:51 UTC NOAA

TAF TAF EHKD 290945Z 2910/2922 24018G28KT 9999 BKN025
BECMG 2911/2914 25024G38KT
BECMG 2918/2920 29022G35KT

Example: see airport list